createdAt,value
2023-01-17T00:00:06.501Z,3.70
2023-01-17T00:03:13.847Z,3.74
2023-01-17T00:06:47.076Z,3.80
2023-01-17T00:10:21.573Z,3.81
2023-01-17T00:13:24.639Z,3.82
2023-01-17T00:16:38.613Z,3.80
2023-01-17T00:20:09.691Z,3.70
2023-01-17T00:23:40.524Z,3.71
2023-01-17T00:27:03.381Z,3.73
2023-01-17T00:30:19.915Z,3.84
2023-01-17T00:33:25.102Z,3.88
2023-01-17T00:36:35.173Z,3.86
2023-01-17T00:39:47.425Z,3.98
2023-01-17T00:42:52.988Z,4.09
2023-01-17T00:46:29.744Z,4.11
2023-01-17T00:50:11.862Z,4.16
2023-01-17T00:53:40.810Z,4.17
2023-01-17T00:57:09.195Z,4.11
2023-01-17T01:00:37.929Z,4.12
2023-01-17T01:04:16.519Z,4.19
2023-01-17T01:11:35.043Z,4.25
2023-01-17T01:15:04.825Z,4.19
2023-01-17T01:22:33.875Z,4.17
2023-01-17T01:26:03.266Z,4.19
2023-01-17T01:29:31.156Z,4.26
2023-01-17T01:32:56.896Z,4.17
2023-01-17T01:35:59.186Z,4.13
2023-01-17T01:39:01.352Z,4.06
2023-01-17T01:42:03.531Z,4.00
2023-01-17T01:45:18.374Z,4.05
2023-01-17T01:48:31.999Z,4.03
2023-01-17T01:51:48.505Z,4.02
2023-01-17T01:55:08.192Z,3.98
2023-01-17T01:58:18.819Z,3.92
2023-01-17T02:01:21.179Z,3.82
2023-01-17T02:04:25.468Z,3.82
2023-01-17T02:07:36.670Z,3.80
2023-01-17T02:10:41.148Z,3.89
2023-01-17T02:13:43.662Z,3.97
2023-01-17T02:17:10.286Z,3.94
2023-01-17T02:20:12.443Z,4.03
2023-01-17T02:23:35.730Z,4.05
2023-01-17T02:27:03.636Z,4.04
2023-01-17T02:30:41.672Z,4.00
2023-01-17T02:33:50.704Z,3.93
2023-01-17T02:37:01.208Z,3.96
2023-01-17T02:40:26.545Z,3.95
2023-01-17T02:43:28.881Z,3.95
2023-01-17T02:46:31.412Z,3.98
2023-01-17T02:49:33.727Z,3.98
2023-01-17T02:53:00.929Z,3.93
2023-01-17T02:56:08.724Z,3.91
2023-01-17T02:59:33.591Z,3.90
2023-01-17T03:02:49.893Z,3.94
2023-01-17T03:06:13.562Z,3.88
2023-01-17T03:09:17.345Z,3.85
2023-01-17T03:12:21.181Z,3.88
2023-01-17T03:15:23.307Z,3.96
2023-01-17T03:18:25.513Z,3.98
2023-01-17T03:21:27.577Z,3.92
2023-01-17T03:24:29.820Z,3.92
2023-01-17T03:27:32.093Z,3.85
2023-01-17T03:30:34.365Z,3.98
2023-01-17T03:33:36.622Z,4.00
2023-01-17T03:36:38.894Z,4.06
2023-01-17T03:39:41.084Z,4.02
2023-01-17T03:42:44.786Z,3.97
2023-01-17T03:45:52.367Z,4.01
2023-01-17T03:48:54.766Z,4.03
2023-01-17T03:51:57.061Z,3.98
2023-01-17T03:54:59.694Z,4.01
2023-01-17T03:58:02.008Z,4.01
2023-01-17T04:01:04.365Z,4.02
2023-01-17T04:04:06.716Z,4.00
2023-01-17T04:07:09.436Z,4.02
2023-01-17T04:10:12.135Z,4.06
2023-01-17T04:13:15.251Z,4.04
2023-01-17T04:16:18.825Z,4.01
2023-01-17T04:19:21.592Z,4.02
2023-01-17T04:22:23.863Z,3.98
2023-01-17T04:25:26.572Z,3.95
2023-01-17T04:28:30.597Z,4.05
2023-01-17T04:31:33.337Z,4.12
2023-01-17T04:34:35.959Z,4.12
2023-01-17T04:37:39.597Z,4.23
2023-01-17T04:40:41.975Z,4.21
2023-01-17T04:43:44.666Z,4.10
2023-01-17T04:46:47.122Z,4.16
2023-01-17T04:49:49.859Z,4.29
2023-01-17T04:52:52.293Z,4.22
2023-01-17T04:55:54.828Z,4.22
2023-01-17T04:58:58.472Z,4.34
2023-01-17T05:02:00.832Z,4.35
2023-01-17T05:05:03.323Z,4.39
2023-01-17T05:08:05.792Z,4.36
2023-01-17T05:11:08.248Z,4.35
2023-01-17T05:14:11.374Z,4.40
2023-01-17T05:17:13.898Z,4.49
2023-01-17T05:20:18.578Z,4.48
2023-01-17T05:23:22.938Z,4.47
2023-01-17T05:26:26.095Z,4.53
2023-01-17T05:29:29.705Z,4.56
2023-01-17T05:32:33.985Z,4.55
2023-01-17T05:35:37.781Z,4.59
2023-01-17T05:38:42.685Z,4.60
2023-01-17T05:41:49.534Z,4.59
2023-01-17T05:44:56.530Z,4.52
2023-01-17T05:48:14.653Z,4.53
2023-01-17T05:51:21.446Z,4.59
2023-01-17T05:54:27.107Z,4.60
2023-01-17T05:57:33.471Z,4.59
2023-01-17T06:00:37.793Z,4.59
2023-01-17T06:03:40.274Z,4.61
2023-01-17T06:06:42.817Z,4.57
2023-01-17T06:09:45.807Z,4.57
2023-01-17T06:12:48.917Z,4.57
2023-01-17T06:15:52.765Z,4.54
2023-01-17T06:18:56.135Z,4.55
2023-01-17T06:21:58.813Z,4.58
2023-01-17T06:25:02.934Z,4.55
2023-01-17T06:28:07.076Z,4.54
2023-01-17T06:31:10.303Z,4.50
2023-01-17T06:34:13.406Z,4.39
2023-01-17T06:37:16.850Z,4.36
2023-01-17T06:40:20.327Z,4.32
2023-01-17T06:43:22.732Z,4.29
2023-01-17T06:46:26.157Z,4.19
2023-01-17T06:49:32.346Z,4.19
2023-01-17T06:52:35.662Z,4.16
2023-01-17T06:55:41.416Z,4.15
2023-01-17T06:58:46.059Z,4.13
2023-01-17T07:01:49.041Z,4.12
2023-01-17T07:04:51.833Z,4.14
2023-01-17T07:07:55.059Z,4.16
2023-01-17T07:11:01.781Z,4.22
2023-01-17T07:14:07.879Z,4.17
2023-01-17T07:17:10.851Z,4.19
2023-01-17T07:20:14.968Z,4.15
2023-01-17T07:23:20.720Z,4.18
2023-01-17T07:26:25.958Z,4.18
2023-01-17T07:29:28.780Z,4.20
2023-01-17T07:32:46.293Z,4.12
2023-01-17T07:35:51.284Z,4.12
2023-01-17T07:38:58.257Z,4.13
2023-01-17T07:42:01.491Z,4.04
2023-01-17T07:45:05.915Z,4.07
2023-01-17T07:48:10.835Z,4.06
2023-01-17T07:51:20.572Z,4.10
2023-01-17T07:54:26.261Z,4.09
2023-01-17T07:57:33.946Z,4.09
2023-01-17T08:00:47.112Z,4.04
2023-01-17T08:03:55.924Z,3.91
2023-01-17T08:07:02.511Z,3.91
2023-01-17T08:10:07.856Z,3.97
2023-01-17T08:13:11.955Z,4.11
2023-01-17T08:16:19.752Z,4.22
2023-01-17T08:19:23.113Z,4.35
2023-01-17T08:22:28.410Z,4.50
2023-01-17T08:25:37.796Z,4.61
2023-01-17T08:28:45.699Z,4.81
2023-01-17T08:31:49.520Z,4.74
2023-01-17T08:34:56.602Z,4.55
2023-01-17T08:38:09.575Z,4.32
2023-01-17T08:41:34.304Z,4.23
2023-01-17T08:44:42.774Z,4.20
2023-01-17T08:47:48.363Z,4.36
2023-01-17T08:50:57.747Z,4.47
2023-01-17T08:54:01.160Z,4.84
2023-01-17T08:57:05.842Z,5.40
2023-01-17T09:00:29.559Z,5.70
2023-01-17T09:03:42.032Z,5.93
2023-01-17T09:06:46.680Z,5.69
2023-01-17T09:10:04.613Z,5.56
2023-01-17T09:17:59.441Z,5.24
2023-01-17T09:21:31.127Z,5.15
2023-01-17T09:24:36.653Z,5.00
2023-01-17T09:31:20.617Z,5.03
2023-01-17T09:34:27.182Z,5.25
2023-01-17T09:37:30.734Z,5.46
2023-01-17T09:41:10.942Z,5.87
2023-01-17T09:45:02.817Z,5.99
2023-01-17T09:51:47.924Z,5.86
2023-01-17T09:55:09.344Z,6.11
2023-01-17T09:58:44.278Z,6.21
2023-01-17T10:02:12.056Z,6.15
2023-01-17T10:21:51.945Z,6.64
2023-01-17T10:25:09.777Z,6.72
2023-01-17T10:28:35.050Z,6.78
2023-01-17T10:32:06.485Z,6.66
2023-01-17T10:36:05.849Z,6.74
2023-01-17T10:39:35.551Z,6.67
2023-01-17T10:43:20.283Z,6.72
2023-01-17T10:47:05.703Z,6.75
2023-01-17T10:50:34.713Z,6.82
2023-01-17T10:54:33.251Z,6.78
2023-01-17T10:58:22.868Z,6.79
2023-01-17T11:01:30.331Z,7.00
2023-01-17T11:04:39.081Z,7.16
2023-01-17T11:08:36.710Z,7.25
2023-01-17T11:12:05.272Z,7.18
2023-01-17T11:15:16.351Z,7.35
2023-01-17T11:22:29.316Z,7.23
2023-01-17T11:26:27.270Z,7.33
2023-01-17T11:29:40.354Z,7.43
2023-01-17T11:33:30.827Z,7.49
2023-01-17T11:36:56.946Z,7.77
2023-01-17T11:44:58.568Z,7.97
2023-01-17T11:48:42.264Z,7.78
2023-01-17T11:52:02.210Z,7.92
2023-01-17T11:55:06.320Z,7.84
2023-01-17T11:58:34.621Z,7.96
2023-01-17T12:07:03.724Z,8.14
2023-01-17T12:11:06.373Z,7.98
2023-01-17T12:14:57.707Z,7.81
2023-01-17T12:18:32.776Z,8.01
2023-01-17T12:34:08.148Z,8.05
2023-01-17T12:45:33.528Z,8.19
2023-01-17T12:48:51.748Z,8.20
2023-01-17T12:52:33.816Z,8.17
2023-01-17T12:55:48.776Z,7.99
2023-01-17T12:59:21.587Z,7.97
2023-01-17T13:09:19.415Z,7.65
2023-01-17T13:12:43.216Z,7.77
2023-01-17T13:15:54.788Z,7.76
2023-01-17T13:19:32.323Z,7.67
2023-01-17T13:23:19.739Z,7.58
2023-01-17T13:27:09.875Z,7.58
2023-01-17T13:31:05.462Z,7.57
2023-01-17T13:34:47.163Z,7.46
2023-01-17T13:55:00.391Z,7.01
2023-01-17T13:59:08.011Z,6.97
2023-01-17T14:03:09.077Z,6.90
2023-01-17T14:13:56.571Z,6.76
2023-01-17T14:17:41.402Z,6.65
2023-01-17T14:21:18.527Z,6.49
2023-01-17T14:24:35.284Z,6.54
2023-01-17T14:28:00.496Z,6.49
2023-01-17T14:35:25.105Z,6.37
2023-01-17T14:38:33.172Z,6.36
2023-01-17T14:42:00.684Z,6.35
2023-01-17T14:45:55.243Z,6.40
2023-01-17T14:49:25.969Z,6.41
2023-01-17T15:03:57.066Z,6.39
2023-01-17T15:59:29.274Z,6.33
2023-01-17T16:03:07.418Z,6.27
2023-01-17T16:06:35.204Z,6.20
2023-01-17T17:29:10.447Z,4.73
2023-01-17T17:32:12.921Z,4.74
2023-01-17T17:35:15.343Z,4.76
2023-01-17T17:38:17.456Z,4.73
2023-01-17T17:41:22.807Z,4.81
2023-01-17T17:44:25.105Z,4.74
2023-01-17T17:47:27.174Z,4.73
2023-01-17T17:50:29.229Z,4.76
2023-01-17T17:53:32.272Z,4.73
2023-01-17T17:56:35.573Z,4.70
2023-01-17T17:59:37.661Z,4.68
2023-01-17T18:02:39.798Z,4.63
2023-01-17T18:05:42.652Z,4.62
2023-01-17T18:08:44.954Z,4.60
2023-01-17T18:11:47.221Z,4.50
2023-01-17T18:14:49.324Z,4.48
2023-01-17T18:17:52.530Z,4.38
2023-01-17T18:20:54.758Z,4.42
2023-01-17T18:24:02.091Z,4.39
2023-01-17T18:27:04.376Z,4.37
2023-01-17T18:30:07.283Z,4.35
2023-01-17T18:33:10.720Z,4.35
2023-01-17T18:36:13.842Z,4.33
2023-01-17T18:39:18.758Z,4.30
2023-01-17T18:42:23.190Z,4.29
2023-01-17T18:45:25.496Z,4.27
2023-01-17T18:48:27.968Z,4.27
2023-01-17T18:51:32.659Z,4.25
2023-01-17T18:54:34.867Z,4.28
2023-01-17T18:57:37.230Z,4.19
2023-01-17T19:00:39.368Z,4.13
2023-01-17T19:03:43.255Z,4.16
2023-01-17T19:06:47.480Z,4.12
2023-01-17T19:09:49.708Z,4.05
2023-01-17T19:12:51.801Z,3.98
2023-01-17T19:15:59.607Z,3.93
2023-01-17T19:19:07.159Z,3.94
2023-01-17T19:22:09.213Z,3.96
2023-01-17T19:25:11.245Z,3.86
2023-01-17T19:28:13.308Z,3.90
2023-01-17T19:31:16.787Z,3.82
2023-01-17T19:34:19.823Z,3.86
2023-01-17T19:37:21.896Z,3.85
2023-01-17T19:40:24.033Z,3.81
2023-01-17T19:43:26.147Z,3.71
2023-01-17T19:46:28.820Z,3.69
2023-01-17T19:49:32.206Z,3.64
2023-01-17T19:52:38.182Z,3.64
2023-01-17T19:55:40.487Z,3.62
2023-01-17T19:58:44.253Z,3.57
2023-01-17T20:01:46.428Z,3.57
2023-01-17T20:04:48.607Z,3.55
2023-01-17T20:07:50.784Z,3.53
2023-01-17T20:10:53.043Z,3.46
2023-01-17T20:13:57.133Z,3.46
2023-01-17T20:16:59.233Z,3.41
2023-01-17T20:20:01.518Z,3.29
2023-01-17T20:23:05.758Z,3.28
2023-01-17T20:26:08.780Z,3.27
2023-01-17T20:29:14.854Z,3.13
2023-01-17T20:32:17.267Z,3.20
2023-01-17T20:35:19.395Z,3.18
2023-01-17T20:38:21.449Z,3.13
2023-01-17T20:41:25.744Z,3.14
2023-01-17T20:44:27.807Z,3.10
2023-01-17T20:47:29.955Z,3.08
2023-01-17T20:50:32.346Z,2.96
2023-01-17T20:53:35.948Z,2.91
2023-01-17T20:56:38.519Z,2.92
2023-01-17T20:59:41.036Z,2.86
2023-01-17T21:02:43.175Z,2.84
2023-01-17T21:05:45.296Z,2.72
2023-01-17T21:08:48.129Z,2.67
2023-01-17T21:11:51.328Z,2.53
2023-01-17T21:14:53.727Z,2.42
2023-01-17T21:17:56.886Z,2.39
2023-01-17T21:21:11.981Z,2.39
2023-01-17T21:24:19.108Z,2.33
2023-01-17T21:27:21.701Z,2.33
2023-01-17T21:30:24.246Z,2.29
2023-01-17T21:33:29.319Z,2.20
2023-01-17T21:36:34.373Z,2.20
2023-01-17T21:39:36.576Z,2.14
2023-01-17T21:42:38.729Z,2.10
2023-01-17T21:45:42.007Z,2.01
2023-01-17T21:48:44.470Z,1.98
2023-01-17T21:51:55.520Z,1.95
2023-01-17T21:55:16.616Z,1.89
2023-01-17T21:58:37.369Z,1.94
2023-01-17T22:01:40.752Z,1.95
2023-01-17T22:04:43.125Z,1.97
2023-01-17T22:08:05.925Z,1.99
2023-01-17T22:11:13.379Z,1.96
2023-01-17T22:14:15.532Z,1.97
2023-01-17T22:17:17.576Z,1.98
2023-01-17T22:20:21.312Z,1.94
2023-01-17T22:23:23.708Z,1.94
2023-01-17T22:26:28.967Z,1.92
2023-01-17T22:29:33.463Z,1.91
2023-01-17T22:32:36.955Z,1.92
2023-01-17T22:35:39.130Z,1.90
2023-01-17T22:38:42.939Z,1.91
2023-01-17T22:41:45.121Z,1.93
2023-01-17T22:44:47.926Z,1.98
2023-01-17T22:47:49.960Z,2.05
2023-01-17T22:50:57.007Z,2.13
2023-01-17T22:54:00.631Z,2.15
2023-01-17T22:57:03.913Z,2.20
2023-01-17T23:00:14.698Z,2.25
2023-01-17T23:03:17.293Z,2.27
2023-01-17T23:06:25.697Z,2.29
2023-01-17T23:09:28.052Z,2.34
2023-01-17T23:12:30.493Z,2.37
2023-01-17T23:15:56.195Z,2.37
2023-01-17T23:19:17.310Z,2.48
2023-01-17T23:22:28.589Z,2.56
2023-01-17T23:25:30.696Z,2.57
2023-01-17T23:28:32.888Z,2.56
2023-01-17T23:31:36.663Z,2.58
2023-01-17T23:34:38.877Z,2.64
2023-01-17T23:37:59.648Z,2.71
2023-01-17T23:41:25.996Z,2.75
2023-01-17T23:44:31.752Z,2.80
2023-01-17T23:47:33.757Z,2.85
2023-01-17T23:50:37.271Z,2.93
2023-01-17T23:53:43.330Z,2.98
2023-01-17T23:56:45.454Z,3.01
2023-01-17T23:59:47.633Z,3.07
